createdAt,value
2023-01-30T00:02:25.002Z,69.10
2023-01-30T00:05:28.332Z,69.07
2023-01-30T00:08:31.552Z,69.01
2023-01-30T00:11:34.767Z,69.04
2023-01-30T00:14:37.977Z,68.94
2023-01-30T00:17:41.253Z,68.82
2023-01-30T00:20:44.499Z,68.76
2023-01-30T00:23:47.722Z,68.70
2023-01-30T00:26:50.903Z,68.71
2023-01-30T00:30:02.538Z,68.73
2023-01-30T00:33:07.110Z,68.55
2023-01-30T00:36:10.891Z,68.55
2023-01-30T00:39:14.097Z,68.49
2023-01-30T00:42:35.725Z,68.53
2023-01-30T00:46:00.461Z,68.43
2023-01-30T00:49:03.725Z,68.47
2023-01-30T00:52:06.959Z,68.40
2023-01-30T00:55:10.331Z,68.35
2023-01-30T00:58:13.974Z,68.27
2023-01-30T01:01:17.287Z,68.18
2023-01-30T01:04:20.675Z,68.19
2023-01-30T01:07:24.730Z,68.14
2023-01-30T01:10:28.242Z,68.06
2023-01-30T01:13:31.494Z,67.97
2023-01-30T01:16:35.751Z,67.95
2023-01-30T01:19:39.035Z,67.90
2023-01-30T01:22:42.934Z,67.83
2023-01-30T01:25:46.200Z,67.70
2023-01-30T01:28:49.688Z,67.54
2023-01-30T01:31:52.912Z,67.55
2023-01-30T01:34:56.159Z,67.50
2023-01-30T01:37:59.449Z,67.50
2023-01-30T01:41:03.470Z,67.43
2023-01-30T01:44:14.554Z,67.42
2023-01-30T01:47:17.795Z,67.48
2023-01-30T01:50:25.182Z,67.52
2023-01-30T01:53:36.500Z,67.59
2023-01-30T01:56:46.276Z,67.64
2023-01-30T01:59:53.341Z,67.71
2023-01-30T02:03:00.094Z,67.71
2023-01-30T02:06:04.534Z,67.76
2023-01-30T02:09:10.304Z,67.82
2023-01-30T02:12:15.410Z,67.93
2023-01-30T02:15:20.347Z,67.93
2023-01-30T02:18:23.770Z,67.97
2023-01-30T02:22:05.558Z,68.05
2023-01-30T02:25:17.959Z,68.15
2023-01-30T02:28:21.371Z,68.24
2023-01-30T02:31:27.712Z,68.32
2023-01-30T02:34:43.115Z,68.39
2023-01-30T02:38:03.628Z,68.47
2023-01-30T02:41:06.855Z,68.54
2023-01-30T02:44:22.245Z,68.63
2023-01-30T02:47:38.477Z,68.73
2023-01-30T02:50:58.118Z,68.83
2023-01-30T02:54:01.686Z,68.90
2023-01-30T02:57:19.192Z,68.94
2023-01-30T03:00:43.152Z,68.97
2023-01-30T03:04:01.487Z,68.98
2023-01-30T03:07:10.862Z,69.00
2023-01-30T03:10:38.085Z,69.01
2023-01-30T03:13:59.562Z,68.98
2023-01-30T03:17:05.950Z,69.00
2023-01-30T03:20:10.546Z,68.96
2023-01-30T03:23:14.307Z,68.97
2023-01-30T03:26:21.311Z,68.96
2023-01-30T03:29:25.388Z,68.91
2023-01-30T03:32:28.575Z,68.90
2023-01-30T03:35:32.467Z,68.93
2023-01-30T03:38:36.204Z,68.88
2023-01-30T03:41:39.495Z,68.85
2023-01-30T03:44:42.750Z,68.86
2023-01-30T03:47:46.986Z,68.86
2023-01-30T03:50:51.635Z,68.89
2023-01-30T03:53:54.910Z,68.92
2023-01-30T03:56:58.712Z,68.96
2023-01-30T04:00:02.548Z,68.99
2023-01-30T04:03:07.819Z,69.00
2023-01-30T04:06:11.135Z,68.97
2023-01-30T04:09:14.585Z,68.98
2023-01-30T04:12:21.813Z,68.97
2023-01-30T04:15:29.987Z,68.94
2023-01-30T04:18:35.987Z,68.95
2023-01-30T04:21:46.589Z,68.97
2023-01-30T04:24:49.888Z,68.97
2023-01-30T04:27:53.115Z,69.00
2023-01-30T04:31:06.079Z,69.00
2023-01-30T04:34:15.350Z,68.99
2023-01-30T04:37:18.947Z,69.00
2023-01-30T04:40:24.514Z,68.97
2023-01-30T04:43:29.159Z,68.95
2023-01-30T04:46:57.671Z,68.94
2023-01-30T04:50:00.922Z,68.95
2023-01-30T04:53:04.309Z,68.98
2023-01-30T04:56:07.815Z,68.97
2023-01-30T04:59:11.125Z,68.94
2023-01-30T05:02:18.001Z,68.95
2023-01-30T05:05:22.192Z,68.89
2023-01-30T05:08:25.420Z,68.82
2023-01-30T05:11:29.931Z,68.80
2023-01-30T05:14:35.098Z,68.84
2023-01-30T05:17:38.811Z,68.83
2023-01-30T05:20:42.032Z,68.84
2023-01-30T05:23:45.557Z,68.86
2023-01-30T05:26:48.749Z,68.81
2023-01-30T05:29:52.107Z,68.78
2023-01-30T05:32:55.294Z,68.73
2023-01-30T05:35:59.234Z,68.73
2023-01-30T05:39:02.431Z,68.75
2023-01-30T05:42:05.889Z,68.77
2023-01-30T05:45:09.610Z,68.78
2023-01-30T05:48:12.789Z,68.74
2023-01-30T05:51:22.396Z,68.71
2023-01-30T05:54:25.586Z,68.71
2023-01-30T05:57:28.900Z,68.67
2023-01-30T06:00:32.268Z,68.62
2023-01-30T06:03:36.296Z,68.59
2023-01-30T06:06:39.549Z,68.65
2023-01-30T06:09:42.770Z,68.58
2023-01-30T06:12:46.068Z,68.55
2023-01-30T06:15:49.331Z,68.52
2023-01-30T06:18:52.544Z,68.51
2023-01-30T06:21:55.765Z,68.53
2023-01-30T06:24:58.937Z,68.44
2023-01-30T06:28:02.198Z,68.44
2023-01-30T06:31:09.208Z,68.42
2023-01-30T06:34:12.598Z,68.40
2023-01-30T06:37:15.805Z,68.38
2023-01-30T06:40:19.160Z,68.39
2023-01-30T06:43:22.456Z,68.42
2023-01-30T06:46:25.679Z,68.43
2023-01-30T06:49:28.851Z,68.41
2023-01-30T06:52:32.274Z,68.43
2023-01-30T06:55:36.434Z,68.48
2023-01-30T06:58:39.649Z,68.49
2023-01-30T07:01:42.911Z,68.48
2023-01-30T07:04:46.180Z,68.48
2023-01-30T07:07:49.374Z,68.46
2023-01-30T07:10:52.647Z,68.49
2023-01-30T07:13:55.913Z,68.45
2023-01-30T07:16:59.279Z,68.45
2023-01-30T07:20:02.540Z,68.47
2023-01-30T07:23:05.798Z,68.52
2023-01-30T07:26:09.011Z,68.49
2023-01-30T07:29:12.231Z,68.48
2023-01-30T07:32:19.228Z,68.47
2023-01-30T07:35:24.580Z,68.43
2023-01-30T07:38:27.816Z,68.39
2023-01-30T07:41:31.240Z,68.45
2023-01-30T07:44:34.448Z,68.43
2023-01-30T07:47:38.577Z,68.42
2023-01-30T07:50:42.624Z,68.41
2023-01-30T07:53:52.612Z,68.45
2023-01-30T07:56:56.013Z,68.45
2023-01-30T07:59:59.351Z,68.43
2023-01-30T08:03:02.909Z,68.43
2023-01-30T08:06:06.977Z,68.42
2023-01-30T08:09:10.547Z,68.45
2023-01-30T08:12:13.896Z,68.50
2023-01-30T08:15:18.313Z,68.40
2023-01-30T08:18:21.555Z,68.35
2023-01-30T08:21:24.833Z,68.26
2023-01-30T08:24:28.208Z,68.26
2023-01-30T08:27:31.576Z,68.16
2023-01-30T08:30:34.993Z,68.12
2023-01-30T08:33:38.427Z,68.12
2023-01-30T08:36:41.724Z,68.07
2023-01-30T08:39:44.995Z,68.10
2023-01-30T08:42:48.255Z,68.13
2023-01-30T08:45:54.731Z,68.19
2023-01-30T08:48:58.098Z,68.21
2023-01-30T08:52:03.500Z,68.20
2023-01-30T08:55:07.149Z,68.21
2023-01-30T08:58:10.430Z,68.26
2023-01-30T09:01:13.775Z,68.31
2023-01-30T09:04:17.132Z,68.43
2023-01-30T09:07:20.505Z,68.61
2023-01-30T09:10:26.103Z,68.73
2023-01-30T09:13:30.073Z,68.90
2023-01-30T09:16:33.404Z,69.04
2023-01-30T09:19:37.312Z,69.25
2023-01-30T09:22:40.819Z,69.50
2023-01-30T09:25:47.519Z,69.56
2023-01-30T09:28:50.861Z,69.63
2023-01-30T09:31:56.639Z,69.99
2023-01-30T09:35:00.001Z,70.26
2023-01-30T09:38:05.822Z,70.53
2023-01-30T09:41:33.238Z,70.72
2023-01-30T09:44:45.323Z,70.80
2023-01-30T09:47:57.680Z,70.83
2023-01-30T09:51:10.969Z,71.22
2023-01-30T09:54:22.308Z,71.24
2023-01-30T09:57:26.190Z,71.33
2023-01-30T10:00:35.657Z,71.52
2023-01-30T10:03:50.247Z,71.73
2023-01-30T10:07:14.884Z,71.92
2023-01-30T10:10:34.900Z,72.10
2023-01-30T10:13:59.304Z,72.15
2023-01-30T10:17:21.423Z,72.47
2023-01-30T10:21:09.478Z,72.55
2023-01-30T10:24:40.630Z,72.45
2023-01-30T10:27:57.959Z,72.51
2023-01-30T10:31:08.824Z,72.70
2023-01-30T10:34:19.639Z,72.74
2023-01-30T10:37:41.974Z,72.78
2023-01-30T10:40:54.376Z,72.76
2023-01-30T10:43:57.511Z,72.84
2023-01-30T10:47:16.289Z,72.79
2023-01-30T10:50:34.660Z,72.98
2023-01-30T10:53:48.486Z,73.12
2023-01-30T10:57:11.630Z,73.33
2023-01-30T11:00:49.865Z,73.34
2023-01-30T11:04:07.443Z,73.33
2023-01-30T11:07:13.461Z,73.58
2023-01-30T11:10:26.060Z,73.82
2023-01-30T11:13:32.257Z,73.86
2023-01-30T11:17:02.688Z,73.70
2023-01-30T11:20:22.661Z,73.98
2023-01-30T11:23:31.887Z,74.22
2023-01-30T11:26:46.813Z,74.23
2023-01-30T11:30:02.366Z,74.26
2023-01-30T11:33:16.904Z,74.23
2023-01-30T11:36:29.547Z,74.31
2023-01-30T11:39:34.835Z,74.44
2023-01-30T11:42:45.138Z,74.61
2023-01-30T11:45:50.515Z,74.67
2023-01-30T11:49:04.115Z,74.76
2023-01-30T11:52:28.049Z,74.88
2023-01-30T11:55:37.026Z,74.81
2023-01-30T11:58:41.909Z,74.99
2023-01-30T12:01:45.374Z,75.14
2023-01-30T12:04:54.045Z,75.22
2023-01-30T12:08:31.175Z,75.34
2023-01-30T12:11:45.352Z,75.53
2023-01-30T12:14:50.630Z,75.58
2023-01-30T12:18:20.130Z,75.71
2023-01-30T12:21:46.515Z,75.74
2023-01-30T12:25:10.990Z,75.85
2023-01-30T12:28:30.149Z,75.95
2023-01-30T12:31:46.417Z,76.11
2023-01-30T12:34:51.192Z,76.17
2023-01-30T12:38:05.463Z,76.26
2023-01-30T12:41:23.598Z,76.35
2023-01-30T12:44:36.543Z,76.41
2023-01-30T12:47:51.966Z,76.38
2023-01-30T12:51:10.352Z,76.13
2023-01-30T12:54:39.455Z,76.44
2023-01-30T12:57:57.905Z,76.64
2023-01-30T13:01:29.813Z,76.70
2023-01-30T13:04:56.879Z,76.86
2023-01-30T13:08:23.338Z,76.92
2023-01-30T13:11:41.657Z,76.93
2023-01-30T13:15:12.312Z,77.01
2023-01-30T13:18:27.019Z,76.94
2023-01-30T13:21:34.868Z,77.12
2023-01-30T13:24:44.317Z,77.26
2023-01-30T13:27:57.558Z,77.33
2023-01-30T13:31:02.636Z,77.39
2023-01-30T13:34:12.162Z,77.36
2023-01-30T13:37:18.225Z,77.52
2023-01-30T13:40:46.110Z,77.78
2023-01-30T13:43:53.820Z,77.82
2023-01-30T13:47:00.499Z,77.80
2023-01-30T13:50:45.715Z,77.84
2023-01-30T13:54:00.990Z,77.89
2023-01-30T13:57:32.723Z,77.93
2023-01-30T14:00:36.694Z,77.91
2023-01-30T14:03:42.763Z,77.91
2023-01-30T14:06:46.526Z,77.94
2023-01-30T14:10:20.796Z,77.87
2023-01-30T14:13:26.704Z,77.90
2023-01-30T14:16:47.752Z,77.87
2023-01-30T14:20:00.558Z,77.79
2023-01-30T14:23:19.637Z,77.71
2023-01-30T14:26:49.146Z,77.75
2023-01-30T14:29:54.734Z,77.74
2023-01-30T14:33:02.968Z,77.68
2023-01-30T14:36:06.353Z,77.62
2023-01-30T14:39:38.961Z,77.50
2023-01-30T14:42:43.829Z,77.44
2023-01-30T14:45:55.344Z,77.40
2023-01-30T14:49:25.529Z,77.32
2023-01-30T14:52:39.093Z,77.33
2023-01-30T14:55:42.901Z,77.29
2023-01-30T14:58:56.873Z,77.30
2023-01-30T15:02:14.675Z,77.29
2023-01-30T15:05:27.596Z,77.29
2023-01-30T15:08:31.041Z,77.23
2023-01-30T15:11:35.505Z,77.18
2023-01-30T15:14:43.747Z,77.15
2023-01-30T15:18:31.977Z,77.05
2023-01-30T15:21:41.720Z,77.10
2023-01-30T15:25:06.794Z,77.11
2023-01-30T15:28:18.027Z,77.14
2023-01-30T15:31:25.199Z,77.04
2023-01-30T15:34:34.363Z,77.10
2023-01-30T15:37:56.329Z,77.20
2023-01-30T15:41:03.389Z,77.24
2023-01-30T15:44:30.179Z,77.26
2023-01-30T15:47:52.834Z,77.33
2023-01-30T15:50:59.674Z,77.34
2023-01-30T15:54:08.936Z,77.34
2023-01-30T15:57:20.836Z,77.43
2023-01-30T16:00:29.710Z,77.44
2023-01-30T16:03:37.817Z,77.41
2023-01-30T16:06:41.052Z,77.40
2023-01-30T16:10:06.741Z,77.41
2023-01-30T16:13:10.721Z,77.42
2023-01-30T16:16:22.691Z,77.43
2023-01-30T16:19:32.566Z,77.39
2023-01-30T16:22:36.200Z,77.35
2023-01-30T16:25:39.442Z,77.32
2023-01-30T16:28:42.689Z,77.28
2023-01-30T16:31:56.926Z,77.25
2023-01-30T16:35:27.380Z,77.20
2023-01-30T16:38:41.969Z,77.13
2023-01-30T16:41:53.938Z,77.00
2023-01-30T16:45:12.438Z,76.93
2023-01-30T16:48:19.465Z,76.89
2023-01-30T16:51:24.105Z,76.85
2023-01-30T16:54:30.769Z,76.80
2023-01-30T16:57:44.236Z,76.72
2023-01-30T17:00:50.888Z,76.64
2023-01-30T17:04:01.794Z,76.56
2023-01-30T17:07:34.741Z,76.54
2023-01-30T17:10:39.037Z,76.50
2023-01-30T17:13:46.623Z,76.44
2023-01-30T17:17:07.728Z,76.45
2023-01-30T17:20:13.706Z,76.51
2023-01-30T17:23:19.675Z,76.56
2023-01-30T17:26:22.987Z,76.58
2023-01-30T17:29:41.931Z,76.73
2023-01-30T17:32:46.188Z,76.87
2023-01-30T17:35:49.525Z,76.93
2023-01-30T17:38:54.684Z,77.03
2023-01-30T17:41:57.916Z,77.06
2023-01-30T17:45:01.118Z,77.22
2023-01-30T17:48:04.637Z,77.36
2023-01-30T17:51:08.648Z,77.41
2023-01-30T17:54:13.233Z,77.48
2023-01-30T17:57:17.018Z,77.47
2023-01-30T18:00:21.671Z,77.40
2023-01-30T18:03:25.386Z,77.42
2023-01-30T18:06:30.043Z,77.48
2023-01-30T18:09:33.352Z,77.52
2023-01-30T18:12:36.646Z,77.58
2023-01-30T18:15:39.899Z,77.66
2023-01-30T18:18:43.204Z,77.70
2023-01-30T18:21:46.442Z,77.74
2023-01-30T18:24:49.704Z,77.75
2023-01-30T18:27:52.958Z,77.70
2023-01-30T18:30:56.986Z,77.68
2023-01-30T18:34:00.464Z,77.64
2023-01-30T18:37:03.629Z,77.60
2023-01-30T18:40:08.069Z,77.60
2023-01-30T18:43:11.570Z,77.55
2023-01-30T18:46:17.281Z,77.52
2023-01-30T18:49:20.518Z,77.50
2023-01-30T18:52:23.896Z,77.46
2023-01-30T18:55:27.123Z,77.40
2023-01-30T18:58:33.869Z,77.32
2023-01-30T19:01:40.020Z,77.35
2023-01-30T19:04:43.354Z,77.35
2023-01-30T19:07:46.734Z,77.29
2023-01-30T19:10:50.163Z,77.28
2023-01-30T19:13:54.373Z,77.23
2023-01-30T19:16:57.756Z,77.20
2023-01-30T19:20:02.518Z,77.20
2023-01-30T19:23:06.656Z,77.18
2023-01-30T19:26:09.879Z,77.21
2023-01-30T19:29:13.110Z,77.32
2023-01-30T19:32:16.374Z,77.55
2023-01-30T19:35:19.836Z,77.87
2023-01-30T19:38:23.214Z,78.10
2023-01-30T19:41:28.576Z,78.37
2023-01-30T19:44:31.793Z,78.53
2023-01-30T19:47:35.093Z,78.67
2023-01-30T19:50:38.586Z,78.80
2023-01-30T19:53:43.852Z,78.94
2023-01-30T19:56:49.349Z,79.05
2023-01-30T19:59:52.610Z,79.14
2023-01-30T20:02:57.064Z,79.08
2023-01-30T20:06:21.583Z,79.13
2023-01-30T20:09:24.910Z,79.31
2023-01-30T20:12:28.301Z,79.29
2023-01-30T20:15:31.566Z,79.29
2023-01-30T20:18:37.432Z,79.40
2023-01-30T20:21:41.085Z,79.48
2023-01-30T20:24:44.416Z,79.51
2023-01-30T20:27:47.879Z,79.40
2023-01-30T20:30:54.431Z,79.50
2023-01-30T20:34:01.017Z,79.57
2023-01-30T20:37:04.373Z,79.60
2023-01-30T20:40:08.755Z,79.61
2023-01-30T20:43:12.049Z,79.68
2023-01-30T20:46:18.318Z,79.70
2023-01-30T20:49:23.397Z,79.82
2023-01-30T20:52:26.751Z,79.90
2023-01-30T20:55:30.827Z,79.82
2023-01-30T20:58:34.272Z,80.02
2023-01-30T21:01:37.757Z,80.02
2023-01-30T21:04:41.321Z,79.93
2023-01-30T21:07:44.889Z,80.04
2023-01-30T21:10:48.270Z,80.07
2023-01-30T21:13:51.726Z,79.94
2023-01-30T21:16:55.176Z,80.10
2023-01-30T21:19:58.471Z,80.23
2023-01-30T21:23:01.864Z,80.30
2023-01-30T21:26:08.023Z,80.48
2023-01-30T21:29:12.176Z,80.64
2023-01-30T21:32:15.570Z,80.72
2023-01-30T21:35:22.139Z,80.75
2023-01-30T21:38:44.915Z,80.83
2023-01-30T21:41:51.063Z,80.90
2023-01-30T21:44:54.408Z,80.91
2023-01-30T21:47:57.984Z,80.96
2023-01-30T21:51:09.969Z,81.06
2023-01-30T21:54:14.057Z,81.13
2023-01-30T21:57:17.353Z,81.10
2023-01-30T22:00:20.852Z,81.08
2023-01-30T22:03:26.971Z,81.09
2023-01-30T22:06:30.904Z,81.14
2023-01-30T22:09:34.452Z,81.15
2023-01-30T22:12:40.299Z,81.17
2023-01-30T22:15:43.566Z,81.20
2023-01-30T22:18:51.276Z,81.16
2023-01-30T22:21:55.314Z,81.22
2023-01-30T22:24:58.665Z,81.25
2023-01-30T22:28:02.263Z,81.31
2023-01-30T22:31:08.486Z,81.37
2023-01-30T22:34:14.250Z,81.41
2023-01-30T22:37:23.326Z,81.43
2023-01-30T22:40:26.582Z,81.42
2023-01-30T22:43:31.598Z,81.51
2023-01-30T22:46:38.583Z,81.60
2023-01-30T22:49:43.084Z,81.62
2023-01-30T22:52:49.608Z,81.60
2023-01-30T22:55:54.702Z,81.57
2023-01-30T22:58:59.061Z,81.60
2023-01-30T23:02:03.364Z,81.50
2023-01-30T23:05:07.446Z,81.62
2023-01-30T23:08:13.042Z,81.59
2023-01-30T23:11:20.802Z,81.47
2023-01-30T23:14:24.266Z,81.62
2023-01-30T23:17:48.905Z,81.60
2023-01-30T23:20:52.460Z,81.69
2023-01-30T23:24:04.151Z,81.75
2023-01-30T23:27:07.759Z,81.82
2023-01-30T23:30:11.620Z,81.89
2023-01-30T23:33:14.957Z,81.88
2023-01-30T23:36:19.097Z,81.98
2023-01-30T23:39:22.471Z,82.11
2023-01-30T23:42:25.938Z,82.22
2023-01-30T23:45:29.233Z,82.35
2023-01-30T23:48:32.577Z,82.40
2023-01-30T23:51:37.601Z,82.51
2023-01-30T23:54:40.755Z,82.59
2023-01-30T23:57:44.601Z,82.55
